sensor_id;sensor_type;location;lat;lon;timestamp;temperature;humidity
65824;SHT31;52585;47.566;19.056;2023-04-23T00:01:04;10.86;64.12
65824;SHT31;52585;47.566;19.056;2023-04-23T00:03:32;10.84;64.18
65824;SHT31;52585;47.566;19.056;2023-04-23T00:06:05;10.79;63.81
65824;SHT31;52585;47.566;19.056;2023-04-23T00:08:32;10.72;64.05
65824;SHT31;52585;47.566;19.056;2023-04-23T00:10:58;10.69;64.06
65824;SHT31;52585;47.566;19.056;2023-04-23T00:13:24;10.64;64.08
65824;SHT31;52585;47.566;19.056;2023-04-23T00:15:50;10.59;64.21
65824;SHT31;52585;47.566;19.056;2023-04-23T00:18:16;10.51;64.37
65824;SHT31;52585;47.566;19.056;2023-04-23T00:20:42;10.47;64.58
65824;SHT31;52585;47.566;19.056;2023-04-23T00:23:08;10.44;64.85
65824;SHT31;52585;47.566;19.056;2023-04-23T00:25:33;10.44;64.88
65824;SHT31;52585;47.566;19.056;2023-04-23T00:27:59;10.45;65.11
65824;SHT31;52585;47.566;19.056;2023-04-23T00:30:25;10.42;65.12
65824;SHT31;52585;47.566;19.056;2023-04-23T00:32:50;10.39;65.38
65824;SHT31;52585;47.566;19.056;2023-04-23T00:35:16;10.39;64.96
65824;SHT31;52585;47.566;19.056;2023-04-23T00:37:42;10.34;64.88
65824;SHT31;52585;47.566;19.056;2023-04-23T00:40:08;10.27;64.98
65824;SHT31;52585;47.566;19.056;2023-04-23T00:42:36;10.25;65.39
65824;SHT31;52585;47.566;19.056;2023-04-23T00:45:03;10.22;65.13
65824;SHT31;52585;47.566;19.056;2023-04-23T00:47:32;10.17;65.30
65824;SHT31;52585;47.566;19.056;2023-04-23T00:49:59;10.14;65.29
65824;SHT31;52585;47.566;19.056;2023-04-23T00:52:25;10.12;65.38
65824;SHT31;52585;47.566;19.056;2023-04-23T00:54:53;10.12;65.69
65824;SHT31;52585;47.566;19.056;2023-04-23T00:57:20;10.12;65.54
65824;SHT31;52585;47.566;19.056;2023-04-23T00:59:47;10.09;65.60
65824;SHT31;52585;47.566;19.056;2023-04-23T01:02:13;10.05;65.83
65824;SHT31;52585;47.566;19.056;2023-04-23T01:04:39;10.03;66.11
65824;SHT31;52585;47.566;19.056;2023-04-23T01:07:09;10.06;66.21
65824;SHT31;52585;47.566;19.056;2023-04-23T01:09:36;10.07;66.15
65824;SHT31;52585;47.566;19.056;2023-04-23T01:12:04;10.07;66.19
65824;SHT31;52585;47.566;19.056;2023-04-23T01:14:30;10.08;65.81
65824;SHT31;52585;47.566;19.056;2023-04-23T01:16:57;10.07;65.65
65824;SHT31;52585;47.566;19.056;2023-04-23T01:19:23;10.05;65.51
65824;SHT31;52585;47.566;19.056;2023-04-23T01:21:49;10.03;65.41
65824;SHT31;52585;47.566;19.056;2023-04-23T01:24:15;9.99;65.88
65824;SHT31;52585;47.566;19.056;2023-04-23T01:26:41;9.97;65.86
65824;SHT31;52585;47.566;19.056;2023-04-23T01:29:07;9.95;65.92
65824;SHT31;52585;47.566;19.056;2023-04-23T01:31:34;9.91;65.86
65824;SHT31;52585;47.566;19.056;2023-04-23T01:34:01;9.89;66.08
65824;SHT31;52585;47.566;19.056;2023-04-23T01:36:27;9.87;66.52
65824;SHT31;52585;47.566;19.056;2023-04-23T01:38:55;9.84;66.77
65824;SHT31;52585;47.566;19.056;2023-04-23T01:41:21;9.82;66.69
65824;SHT31;52585;47.566;19.056;2023-04-23T01:43:46;9.81;66.66
65824;SHT31;52585;47.566;19.056;2023-04-23T01:46:12;9.82;66.16
65824;SHT31;52585;47.566;19.056;2023-04-23T01:48:38;9.82;66.36
65824;SHT31;52585;47.566;19.056;2023-04-23T01:51:04;9.79;66.14
65824;SHT31;52585;47.566;19.056;2023-04-23T01:53:30;9.73;66.23
65824;SHT31;52585;47.566;19.056;2023-04-23T01:55:56;9.68;66.37
65824;SHT31;52585;47.566;19.056;2023-04-23T01:58:22;9.64;66.55
65824;SHT31;52585;47.566;19.056;2023-04-23T02:00:48;9.61;66.25
65824;SHT31;52585;47.566;19.056;2023-04-23T02:03:15;9.57;66.48
65824;SHT31;52585;47.566;19.056;2023-04-23T02:05:41;9.56;66.44
65824;SHT31;52585;47.566;19.056;2023-04-23T02:08:08;9.52;66.54
65824;SHT31;52585;47.566;19.056;2023-04-23T02:10:34;9.48;66.62
65824;SHT31;52585;47.566;19.056;2023-04-23T02:13:00;9.43;66.83
65824;SHT31;52585;47.566;19.056;2023-04-23T02:15:27;9.39;66.80
65824;SHT31;52585;47.566;19.056;2023-04-23T02:17:53;9.33;66.97
65824;SHT31;52585;47.566;19.056;2023-04-23T02:20:19;9.30;67.12
65824;SHT31;52585;47.566;19.056;2023-04-23T02:22:47;9.30;67.42
65824;SHT31;52585;47.566;19.056;2023-04-23T02:25:13;9.30;67.09
65824;SHT31;52585;47.566;19.056;2023-04-23T02:27:41;9.30;66.99
65824;SHT31;52585;47.566;19.056;2023-04-23T02:30:08;9.29;67.24
65824;SHT31;52585;47.566;19.056;2023-04-23T02:32:35;9.30;67.08
65824;SHT31;52585;47.566;19.056;2023-04-23T02:35:02;9.25;66.88
65824;SHT31;52585;47.566;19.056;2023-04-23T02:37:33;9.23;67.16
65824;SHT31;52585;47.566;19.056;2023-04-23T02:40:01;9.21;67.11
65824;SHT31;52585;47.566;19.056;2023-04-23T02:42:29;9.20;67.00
65824;SHT31;52585;47.566;19.056;2023-04-23T02:44:55;9.21;67.30
65824;SHT31;52585;47.566;19.056;2023-04-23T02:47:20;9.19;67.60
65824;SHT31;52585;47.566;19.056;2023-04-23T02:49:46;9.20;67.58
65824;SHT31;52585;47.566;19.056;2023-04-23T02:52:11;9.19;67.34
65824;SHT31;52585;47.566;19.056;2023-04-23T02:54:37;9.19;67.27
65824;SHT31;52585;47.566;19.056;2023-04-23T02:57:03;9.17;67.30
65824;SHT31;52585;47.566;19.056;2023-04-23T02:59:30;9.15;67.22
65824;SHT31;52585;47.566;19.056;2023-04-23T03:01:56;9.13;66.98
65824;SHT31;52585;47.566;19.056;2023-04-23T03:04:21;9.11;67.18
65824;SHT31;52585;47.566;19.056;2023-04-23T03:06:47;9.08;67.05
65824;SHT31;52585;47.566;19.056;2023-04-23T03:09:13;9.06;66.96
65824;SHT31;52585;47.566;19.056;2023-04-23T03:11:39;9.04;67.23
65824;SHT31;52585;47.566;19.056;2023-04-23T03:14:05;9.01;67.21
65824;SHT31;52585;47.566;19.056;2023-04-23T03:16:30;8.96;67.56
65824;SHT31;52585;47.566;19.056;2023-04-23T03:18:56;8.94;67.95
65824;SHT31;52585;47.566;19.056;2023-04-23T03:21:23;8.94;67.79
65824;SHT31;52585;47.566;19.056;2023-04-23T03:23:49;8.90;67.54
65824;SHT31;52585;47.566;19.056;2023-04-23T03:26:14;8.87;67.62
65824;SHT31;52585;47.566;19.056;2023-04-23T03:28:40;8.85;67.68
65824;SHT31;52585;47.566;19.056;2023-04-23T03:31:05;8.84;67.69
65824;SHT31;52585;47.566;19.056;2023-04-23T03:33:31;8.80;67.54
65824;SHT31;52585;47.566;19.056;2023-04-23T03:35:57;8.78;67.63
65824;SHT31;52585;47.566;19.056;2023-04-23T03:38:22;8.75;67.80
65824;SHT31;52585;47.566;19.056;2023-04-23T03:40:48;8.74;67.85
65824;SHT31;52585;47.566;19.056;2023-04-23T03:43:13;8.72;67.94
65824;SHT31;52585;47.566;19.056;2023-04-23T03:45:39;8.69;68.29
65824;SHT31;52585;47.566;19.056;2023-04-23T03:48:04;8.67;68.38
65824;SHT31;52585;47.566;19.056;2023-04-23T03:50:30;8.67;68.19
65824;SHT31;52585;47.566;19.056;2023-04-23T03:52:58;8.66;68.10
65824;SHT31;52585;47.566;19.056;2023-04-23T03:55:24;8.66;67.91
65824;SHT31;52585;47.566;19.056;2023-04-23T03:57:50;8.65;67.73
65824;SHT31;52585;47.566;19.056;2023-04-23T04:00:15;8.63;67.75
65824;SHT31;52585;47.566;19.056;2023-04-23T04:02:41;8.62;68.01
65824;SHT31;52585;47.566;19.056;2023-04-23T04:05:07;8.61;68.00
65824;SHT31;52585;47.566;19.056;2023-04-23T04:07:35;8.60;67.96
65824;SHT31;52585;47.566;19.056;2023-04-23T04:10:01;8.57;68.03
65824;SHT31;52585;47.566;19.056;2023-04-23T04:12:29;8.55;68.31
65824;SHT31;52585;47.566;19.056;2023-04-23T04:14:54;8.54;68.39
65824;SHT31;52585;47.566;19.056;2023-04-23T04:17:20;8.54;68.51
65824;SHT31;52585;47.566;19.056;2023-04-23T04:19:45;8.55;68.64
65824;SHT31;52585;47.566;19.056;2023-04-23T04:22:11;8.52;68.28
65824;SHT31;52585;47.566;19.056;2023-04-23T04:24:36;8.47;68.43
65824;SHT31;52585;47.566;19.056;2023-04-23T04:27:02;8.49;68.89
65824;SHT31;52585;47.566;19.056;2023-04-23T04:29:29;8.53;69.24
65824;SHT31;52585;47.566;19.056;2023-04-23T04:31:55;8.58;69.04
65824;SHT31;52585;47.566;19.056;2023-04-23T04:34:21;8.58;68.85
65824;SHT31;52585;47.566;19.056;2023-04-23T04:36:47;8.59;69.07
65824;SHT31;52585;47.566;19.056;2023-04-23T04:39:15;8.62;69.48
65824;SHT31;52585;47.566;19.056;2023-04-23T04:41:41;8.66;69.24
65824;SHT31;52585;47.566;19.056;2023-04-23T04:44:07;8.70;69.66
65824;SHT31;52585;47.566;19.056;2023-04-23T04:46:33;8.75;69.42
65824;SHT31;52585;47.566;19.056;2023-04-23T04:49:07;8.76;69.40
65824;SHT31;52585;47.566;19.056;2023-04-23T04:51:36;8.77;69.41
65824;SHT31;52585;47.566;19.056;2023-04-23T04:54:03;8.79;69.44
65824;SHT31;52585;47.566;19.056;2023-04-23T04:56:30;8.81;69.46
65824;SHT31;52585;47.566;19.056;2023-04-23T04:58:55;8.82;69.46
65824;SHT31;52585;47.566;19.056;2023-04-23T05:01:21;8.82;69.85
65824;SHT31;52585;47.566;19.056;2023-04-23T05:03:49;8.87;70.25
65824;SHT31;52585;47.566;19.056;2023-04-23T05:06:15;8.94;70.69
65824;SHT31;52585;47.566;19.056;2023-04-23T05:08:41;9.03;70.84
65824;SHT31;52585;47.566;19.056;2023-04-23T05:11:12;9.13;70.65
65824;SHT31;52585;47.566;19.056;2023-04-23T05:13:45;9.20;70.47
65824;SHT31;52585;47.566;19.056;2023-04-23T05:16:12;9.27;70.29
65824;SHT31;52585;47.566;19.056;2023-04-23T05:18:39;9.35;69.93
65824;SHT31;52585;47.566;19.056;2023-04-23T05:21:06;9.41;69.86
65824;SHT31;52585;47.566;19.056;2023-04-23T05:23:32;9.49;70.03
65824;SHT31;52585;47.566;19.056;2023-04-23T05:25:59;9.57;70.01
65824;SHT31;52585;47.566;19.056;2023-04-23T05:28:27;9.65;70.20
65824;SHT31;52585;47.566;19.056;2023-04-23T05:30:56;9.73;70.18
65824;SHT31;52585;47.566;19.056;2023-04-23T05:33:22;9.82;70.47
65824;SHT31;52585;47.566;19.056;2023-04-23T05:35:50;9.90;70.56
65824;SHT31;52585;47.566;19.056;2023-04-23T05:38:16;10.00;70.21
65824;SHT31;52585;47.566;19.056;2023-04-23T05:40:41;10.10;69.64
65824;SHT31;52585;47.566;19.056;2023-04-23T05:43:07;10.20;70.05
65824;SHT31;52585;47.566;19.056;2023-04-23T05:45:33;10.27;69.28
65824;SHT31;52585;47.566;19.056;2023-04-23T05:47:58;10.36;69.16
65824;SHT31;52585;47.566;19.056;2023-04-23T05:50:24;10.44;69.19
65824;SHT31;52585;47.566;19.056;2023-04-23T05:52:50;10.50;68.91
65824;SHT31;52585;47.566;19.056;2023-04-23T05:55:16;10.58;68.88
65824;SHT31;52585;47.566;19.056;2023-04-23T05:57:42;10.65;68.38
65824;SHT31;52585;47.566;19.056;2023-04-23T06:00:09;10.73;68.39
65824;SHT31;52585;47.566;19.056;2023-04-23T06:02:36;10.81;68.42
65824;SHT31;52585;47.566;19.056;2023-04-23T06:05:03;10.89;67.67
65824;SHT31;52585;47.566;19.056;2023-04-23T06:07:30;10.97;67.94
65824;SHT31;52585;47.566;19.056;2023-04-23T06:09:56;11.05;67.56
65824;SHT31;52585;47.566;19.056;2023-04-23T06:12:22;11.15;68.08
65824;SHT31;52585;47.566;19.056;2023-04-23T06:14:48;11.24;67.69
65824;SHT31;52585;47.566;19.056;2023-04-23T06:17:13;11.34;67.41
65824;SHT31;52585;47.566;19.056;2023-04-23T06:19:39;11.43;67.23
65824;SHT31;52585;47.566;19.056;2023-04-23T06:22:05;11.52;66.81
65824;SHT31;52585;47.566;19.056;2023-04-23T06:24:31;11.61;66.34
65824;SHT31;52585;47.566;19.056;2023-04-23T06:26:57;11.70;66.03
65824;SHT31;52585;47.566;19.056;2023-04-23T06:29:22;11.78;65.76
65824;SHT31;52585;47.566;19.056;2023-04-23T06:31:48;11.86;65.38
65824;SHT31;52585;47.566;19.056;2023-04-23T06:34:13;11.93;64.86
65824;SHT31;52585;47.566;19.056;2023-04-23T06:36:39;12.01;64.75
65824;SHT31;52585;47.566;19.056;2023-04-23T06:39:04;12.08;64.61
65824;SHT31;52585;47.566;19.056;2023-04-23T06:41:30;12.15;64.29
65824;SHT31;52585;47.566;19.056;2023-04-23T06:43:56;12.22;64.19
65824;SHT31;52585;47.566;19.056;2023-04-23T06:46:21;12.28;64.02
65824;SHT31;52585;47.566;19.056;2023-04-23T06:48:47;12.34;63.83
65824;SHT31;52585;47.566;19.056;2023-04-23T06:51:12;12.41;63.61
65824;SHT31;52585;47.566;19.056;2023-04-23T06:53:38;12.47;63.48
65824;SHT31;52585;47.566;19.056;2023-04-23T06:56:04;12.54;63.52
65824;SHT31;52585;47.566;19.056;2023-04-23T06:58:30;12.61;63.17
65824;SHT31;52585;47.566;19.056;2023-04-23T07:00:59;12.70;63.07
65824;SHT31;52585;47.566;19.056;2023-04-23T07:03:28;12.77;63.13
65824;SHT31;52585;47.566;19.056;2023-04-23T07:05:58;12.86;62.93
65824;SHT31;52585;47.566;19.056;2023-04-23T07:08:24;12.94;62.99
65824;SHT31;52585;47.566;19.056;2023-04-23T07:10:49;13.01;62.97
65824;SHT31;52585;47.566;19.056;2023-04-23T07:13:16;13.11;63.14
65824;SHT31;52585;47.566;19.056;2023-04-23T07:15:41;13.21;62.87
65824;SHT31;52585;47.566;19.056;2023-04-23T07:18:07;13.29;62.56
65824;SHT31;52585;47.566;19.056;2023-04-23T07:20:33;13.38;62.48
65824;SHT31;52585;47.566;19.056;2023-04-23T07:22:59;13.47;62.10
65824;SHT31;52585;47.566;19.056;2023-04-23T07:25:28;13.56;61.86
65824;SHT31;52585;47.566;19.056;2023-04-23T07:27:55;13.64;62.03
65824;SHT31;52585;47.566;19.056;2023-04-23T07:30:22;13.73;61.82
65824;SHT31;52585;47.566;19.056;2023-04-23T07:32:49;13.81;61.27
65824;SHT31;52585;47.566;19.056;2023-04-23T07:35:15;13.90;61.12
65824;SHT31;52585;47.566;19.056;2023-04-23T07:37:41;13.98;60.76
65824;SHT31;52585;47.566;19.056;2023-04-23T07:40:06;14.04;59.89
65824;SHT31;52585;47.566;19.056;2023-04-23T07:42:33;14.12;59.95
65824;SHT31;52585;47.566;19.056;2023-04-23T07:44:59;14.21;59.83
65824;SHT31;52585;47.566;19.056;2023-04-23T07:47:24;14.30;59.53
65824;SHT31;52585;47.566;19.056;2023-04-23T07:49:50;14.38;59.36
65824;SHT31;52585;47.566;19.056;2023-04-23T07:52:15;14.47;58.77
65824;SHT31;52585;47.566;19.056;2023-04-23T07:54:41;14.56;58.29
65824;SHT31;52585;47.566;19.056;2023-04-23T07:57:08;14.68;58.20
65824;SHT31;52585;47.566;19.056;2023-04-23T07:59:35;14.79;58.22
65824;SHT31;52585;47.566;19.056;2023-04-23T08:02:03;14.90;58.35
65824;SHT31;52585;47.566;19.056;2023-04-23T08:04:30;14.99;58.14
65824;SHT31;52585;47.566;19.056;2023-04-23T08:06:55;15.07;57.22
65824;SHT31;52585;47.566;19.056;2023-04-23T08:09:21;15.17;57.08
65824;SHT31;52585;47.566;19.056;2023-04-23T08:11:47;15.28;57.56
65824;SHT31;52585;47.566;19.056;2023-04-23T08:14:12;15.38;56.61
65824;SHT31;52585;47.566;19.056;2023-04-23T08:16:38;15.48;55.89
65824;SHT31;52585;47.566;19.056;2023-04-23T08:19:04;15.57;55.30
65824;SHT31;52585;47.566;19.056;2023-04-23T08:21:31;15.68;54.67
65824;SHT31;52585;47.566;19.056;2023-04-23T08:23:57;15.79;52.97
65824;SHT31;52585;47.566;19.056;2023-04-23T08:26:23;15.91;53.86
65824;SHT31;52585;47.566;19.056;2023-04-23T08:28:49;16.00;52.15
65824;SHT31;52585;47.566;19.056;2023-04-23T08:31:14;16.10;52.71
65824;SHT31;52585;47.566;19.056;2023-04-23T08:33:41;16.20;53.06
65824;SHT31;52585;47.566;19.056;2023-04-23T08:36:07;16.30;51.66
65824;SHT31;52585;47.566;19.056;2023-04-23T08:38:33;16.38;51.66
65824;SHT31;52585;47.566;19.056;2023-04-23T08:40:59;16.49;52.20
65824;SHT31;52585;47.566;19.056;2023-04-23T08:43:46;16.58;51.64
65824;SHT31;52585;47.566;19.056;2023-04-23T08:46:27;16.69;51.43
65824;SHT31;52585;47.566;19.056;2023-04-23T08:48:57;16.80;51.84
65824;SHT31;52585;47.566;19.056;2023-04-23T08:51:27;16.88;51.67
65824;SHT31;52585;47.566;19.056;2023-04-23T08:53:57;16.99;50.98
65824;SHT31;52585;47.566;19.056;2023-04-23T08:56:27;17.08;50.84
65824;SHT31;52585;47.566;19.056;2023-04-23T08:58:54;17.16;50.45
65824;SHT31;52585;47.566;19.056;2023-04-23T09:01:20;17.23;50.38
65824;SHT31;52585;47.566;19.056;2023-04-23T09:03:46;17.31;49.19
65824;SHT31;52585;47.566;19.056;2023-04-23T09:06:12;17.39;49.29
65824;SHT31;52585;47.566;19.056;2023-04-23T09:08:37;17.48;48.42
65824;SHT31;52585;47.566;19.056;2023-04-23T09:11:03;17.59;48.49
65824;SHT31;52585;47.566;19.056;2023-04-23T09:13:30;17.68;48.78
65824;SHT31;52585;47.566;19.056;2023-04-23T09:15:57;17.76;48.59
65824;SHT31;52585;47.566;19.056;2023-04-23T09:18:23;17.83;48.28
65824;SHT31;52585;47.566;19.056;2023-04-23T09:20:49;17.91;48.76
65824;SHT31;52585;47.566;19.056;2023-04-23T09:23:15;17.96;48.87
65824;SHT31;52585;47.566;19.056;2023-04-23T09:25:40;18.02;49.13
65824;SHT31;52585;47.566;19.056;2023-04-23T09:28:06;18.07;47.62
65824;SHT31;52585;47.566;19.056;2023-04-23T09:30:38;18.13;47.44
65824;SHT31;52585;47.566;19.056;2023-04-23T09:33:09;18.20;47.92
65824;SHT31;52585;47.566;19.056;2023-04-23T09:35:37;18.26;47.94
65824;SHT31;52585;47.566;19.056;2023-04-23T09:38:03;18.34;47.36
65824;SHT31;52585;47.566;19.056;2023-04-23T09:40:32;18.41;47.60
65824;SHT31;52585;47.566;19.056;2023-04-23T09:42:58;18.50;47.42
65824;SHT31;52585;47.566;19.056;2023-04-23T09:45:23;18.59;46.85
65824;SHT31;52585;47.566;19.056;2023-04-23T09:47:50;18.66;46.99
65824;SHT31;52585;47.566;19.056;2023-04-23T09:53:05;18.80;48.01
65824;SHT31;52585;47.566;19.056;2023-04-23T09:55:34;18.86;47.56
65824;SHT31;52585;47.566;19.056;2023-04-23T09:58:06;18.89;46.54
65824;SHT31;52585;47.566;19.056;2023-04-23T10:00:37;18.95;46.40
65824;SHT31;52585;47.566;19.056;2023-04-23T10:03:05;19.01;46.35
65824;SHT31;52585;47.566;19.056;2023-04-23T10:05:36;19.08;46.64
65824;SHT31;52585;47.566;19.056;2023-04-23T10:08:06;19.14;46.14
65824;SHT31;52585;47.566;19.056;2023-04-23T10:10:37;19.20;46.43
65824;SHT31;52585;47.566;19.056;2023-04-23T10:13:03;19.25;45.87
65824;SHT31;52585;47.566;19.056;2023-04-23T10:15:29;19.32;45.99
65824;SHT31;52585;47.566;19.056;2023-04-23T10:17:55;19.38;44.93
65824;SHT31;52585;47.566;19.056;2023-04-23T10:20:23;19.43;45.03
65824;SHT31;52585;47.566;19.056;2023-04-23T10:22:50;19.48;44.83
65824;SHT31;52585;47.566;19.056;2023-04-23T10:25:20;19.50;44.25
65824;SHT31;52585;47.566;19.056;2023-04-23T10:27:48;19.53;43.88
65824;SHT31;52585;47.566;19.056;2023-04-23T10:30:17;19.57;44.35
65824;SHT31;52585;47.566;19.056;2023-04-23T10:32:44;19.58;43.75
65824;SHT31;52585;47.566;19.056;2023-04-23T10:35:13;19.63;43.57
65824;SHT31;52585;47.566;19.056;2023-04-23T10:37:38;19.67;43.89
65824;SHT31;52585;47.566;19.056;2023-04-23T10:40:12;19.72;43.87
65824;SHT31;52585;47.566;19.056;2023-04-23T10:42:43;19.72;43.38
65824;SHT31;52585;47.566;19.056;2023-04-23T10:45:14;19.77;43.09
65824;SHT31;52585;47.566;19.056;2023-04-23T10:47:43;19.82;44.18
65824;SHT31;52585;47.566;19.056;2023-04-23T10:52:52;19.90;44.04
65824;SHT31;52585;47.566;19.056;2023-04-23T10:55:19;19.93;42.52
65824;SHT31;52585;47.566;19.056;2023-04-23T10:57:55;19.94;42.36
65824;SHT31;52585;47.566;19.056;2023-04-23T11:06:04;20.09;41.70
65824;SHT31;52585;47.566;19.056;2023-04-23T11:08:31;20.11;41.78
65824;SHT31;52585;47.566;19.056;2023-04-23T11:11:00;20.10;40.35
65824;SHT31;52585;47.566;19.056;2023-04-23T11:13:32;20.14;40.47
65824;SHT31;52585;47.566;19.056;2023-04-23T11:16:19;20.15;40.34
65824;SHT31;52585;47.566;19.056;2023-04-23T11:24:58;20.29;40.28
65824;SHT31;52585;47.566;19.056;2023-04-23T11:27:23;20.33;40.64
65824;SHT31;52585;47.566;19.056;2023-04-23T11:29:49;20.35;39.64
65824;SHT31;52585;47.566;19.056;2023-04-23T11:32:17;20.37;39.71
65824;SHT31;52585;47.566;19.056;2023-04-23T11:34:43;20.41;39.41
65824;SHT31;52585;47.566;19.056;2023-04-23T11:37:12;20.42;39.83
65824;SHT31;52585;47.566;19.056;2023-04-23T11:39:40;20.44;39.95
65824;SHT31;52585;47.566;19.056;2023-04-23T11:42:08;20.48;39.71
65824;SHT31;52585;47.566;19.056;2023-04-23T11:44:42;20.52;39.92
65824;SHT31;52585;47.566;19.056;2023-04-23T11:47:10;20.55;39.14
65824;SHT31;52585;47.566;19.056;2023-04-23T11:49:43;20.61;39.16
65824;SHT31;52585;47.566;19.056;2023-04-23T11:52:09;20.63;40.28
65824;SHT31;52585;47.566;19.056;2023-04-23T11:54:38;20.66;39.51
65824;SHT31;52585;47.566;19.056;2023-04-23T11:57:06;20.67;40.23
65824;SHT31;52585;47.566;19.056;2023-04-23T11:59:32;20.70;39.43
65824;SHT31;52585;47.566;19.056;2023-04-23T12:01:58;20.70;39.75
65824;SHT31;52585;47.566;19.056;2023-04-23T12:04:28;20.70;39.37
65824;SHT31;52585;47.566;19.056;2023-04-23T12:06:55;20.73;39.18
65824;SHT31;52585;47.566;19.056;2023-04-23T12:09:23;20.74;39.02
65824;SHT31;52585;47.566;19.056;2023-04-23T12:11:53;20.74;39.30
65824;SHT31;52585;47.566;19.056;2023-04-23T12:14:28;20.77;38.86
65824;SHT31;52585;47.566;19.056;2023-04-23T12:16:54;20.80;38.50
65824;SHT31;52585;47.566;19.056;2023-04-23T12:19:26;20.83;38.25
65824;SHT31;52585;47.566;19.056;2023-04-23T12:21:55;20.86;38.98
65824;SHT31;52585;47.566;19.056;2023-04-23T12:24:24;20.87;38.76
65824;SHT31;52585;47.566;19.056;2023-04-23T12:26:53;20.84;39.13
65824;SHT31;52585;47.566;19.056;2023-04-23T12:29:22;20.79;39.39
65824;SHT31;52585;47.566;19.056;2023-04-23T12:31:50;20.74;39.07
65824;SHT31;52585;47.566;19.056;2023-04-23T12:34:18;20.70;39.28
65824;SHT31;52585;47.566;19.056;2023-04-23T12:36:49;20.70;39.34
65824;SHT31;52585;47.566;19.056;2023-04-23T12:41:54;20.71;39.07
65824;SHT31;52585;47.566;19.056;2023-04-23T12:44:26;20.67;38.94
65824;SHT31;52585;47.566;19.056;2023-04-23T12:46:54;20.66;39.09
65824;SHT31;52585;47.566;19.056;2023-04-23T12:49:22;20.63;39.47
65824;SHT31;52585;47.566;19.056;2023-04-23T12:51:48;20.59;39.38
65824;SHT31;52585;47.566;19.056;2023-04-23T12:54:13;20.55;39.50
65824;SHT31;52585;47.566;19.056;2023-04-23T12:56:39;20.52;39.63
65824;SHT31;52585;47.566;19.056;2023-04-23T12:59:05;20.48;40.07
65824;SHT31;52585;47.566;19.056;2023-04-23T13:01:31;20.43;40.02
65824;SHT31;52585;47.566;19.056;2023-04-23T13:03:57;20.39;40.29
65824;SHT31;52585;47.566;19.056;2023-04-23T13:06:22;20.35;39.83
65824;SHT31;52585;47.566;19.056;2023-04-23T13:08:50;20.33;39.38
65824;SHT31;52585;47.566;19.056;2023-04-23T13:11:16;20.34;38.99
65824;SHT31;52585;47.566;19.056;2023-04-23T13:13:42;20.33;38.76
65824;SHT31;52585;47.566;19.056;2023-04-23T13:16:08;20.33;38.83
65824;SHT31;52585;47.566;19.056;2023-04-23T13:18:33;20.31;38.84
65824;SHT31;52585;47.566;19.056;2023-04-23T13:20:59;20.30;38.92
65824;SHT31;52585;47.566;19.056;2023-04-23T13:23:24;20.26;39.04
65824;SHT31;52585;47.566;19.056;2023-04-23T13:25:50;20.26;39.30
65824;SHT31;52585;47.566;19.056;2023-04-23T13:28:16;20.28;39.06
65824;SHT31;52585;47.566;19.056;2023-04-23T13:30:41;20.31;38.94
65824;SHT31;52585;47.566;19.056;2023-04-23T13:33:07;20.35;39.02
65824;SHT31;52585;47.566;19.056;2023-04-23T13:35:32;20.38;38.58
65824;SHT31;52585;47.566;19.056;2023-04-23T13:38:01;20.42;38.54
65824;SHT31;52585;47.566;19.056;2023-04-23T13:40:28;20.47;38.72
65824;SHT31;52585;47.566;19.056;2023-04-23T13:42:53;20.52;39.04
65824;SHT31;52585;47.566;19.056;2023-04-23T13:45:19;20.57;39.04
65824;SHT31;52585;47.566;19.056;2023-04-23T13:47:45;20.63;39.05
65824;SHT31;52585;47.566;19.056;2023-04-23T13:50:11;20.68;39.02
65824;SHT31;52585;47.566;19.056;2023-04-23T13:52:36;20.74;39.21
65824;SHT31;52585;47.566;19.056;2023-04-23T13:55:04;20.80;39.37
65824;SHT31;52585;47.566;19.056;2023-04-23T13:57:31;20.84;39.20
65824;SHT31;52585;47.566;19.056;2023-04-23T13:59:58;20.88;39.45
65824;SHT31;52585;47.566;19.056;2023-04-23T14:02:24;20.88;38.98
65824;SHT31;52585;47.566;19.056;2023-04-23T14:04:51;20.91;37.86
65824;SHT31;52585;47.566;19.056;2023-04-23T14:07:16;20.95;38.33
65824;SHT31;52585;47.566;19.056;2023-04-23T14:09:42;20.97;37.97
65824;SHT31;52585;47.566;19.056;2023-04-23T14:12:11;21.00;38.14
65824;SHT31;52585;47.566;19.056;2023-04-23T14:14:37;21.00;38.28
65824;SHT31;52585;47.566;19.056;2023-04-23T14:17:03;21.00;38.32
65824;SHT31;52585;47.566;19.056;2023-04-23T14:19:28;20.97;38.22
65824;SHT31;52585;47.566;19.056;2023-04-23T14:21:58;20.94;38.19
65824;SHT31;52585;47.566;19.056;2023-04-23T14:24:27;20.91;38.21
65824;SHT31;52585;47.566;19.056;2023-04-23T14:26:58;20.92;38.21
65824;SHT31;52585;47.566;19.056;2023-04-23T14:29:30;20.91;38.22
65824;SHT31;52585;47.566;19.056;2023-04-23T14:32:05;20.91;37.89
65824;SHT31;52585;47.566;19.056;2023-04-23T14:34:31;20.91;37.86
65824;SHT31;52585;47.566;19.056;2023-04-23T14:36:59;20.92;37.58
65824;SHT31;52585;47.566;19.056;2023-04-23T14:39:26;20.93;37.95
65824;SHT31;52585;47.566;19.056;2023-04-23T14:41:53;20.94;37.86
65824;SHT31;52585;47.566;19.056;2023-04-23T14:44:20;20.96;38.02
65824;SHT31;52585;47.566;19.056;2023-04-23T14:46:52;20.97;38.01
65824;SHT31;52585;47.566;19.056;2023-04-23T14:49:18;20.97;38.05
65824;SHT31;52585;47.566;19.056;2023-04-23T14:51:46;20.98;38.20
65824;SHT31;52585;47.566;19.056;2023-04-23T14:54:14;20.98;37.55
65824;SHT31;52585;47.566;19.056;2023-04-23T14:56:41;20.98;37.79
65824;SHT31;52585;47.566;19.056;2023-04-23T14:59:07;20.99;37.84
65824;SHT31;52585;47.566;19.056;2023-04-23T15:01:33;21.00;37.73
65824;SHT31;52585;47.566;19.056;2023-04-23T15:03:59;21.00;37.78
65824;SHT31;52585;47.566;19.056;2023-04-23T15:06:25;21.01;37.44
65824;SHT31;52585;47.566;19.056;2023-04-23T15:08:51;21.02;37.73
65824;SHT31;52585;47.566;19.056;2023-04-23T15:11:16;21.01;37.91
65824;SHT31;52585;47.566;19.056;2023-04-23T15:16:15;21.02;37.81
65824;SHT31;52585;47.566;19.056;2023-04-23T15:18:56;21.01;37.62
65824;SHT31;52585;47.566;19.056;2023-04-23T15:21:23;21.02;37.46
65824;SHT31;52585;47.566;19.056;2023-04-23T15:23:49;21.02;37.65
65824;SHT31;52585;47.566;19.056;2023-04-23T15:26:17;21.01;37.53
65824;SHT31;52585;47.566;19.056;2023-04-23T15:28:44;21.01;37.33
65824;SHT31;52585;47.566;19.056;2023-04-23T15:31:10;21.01;37.77
65824;SHT31;52585;47.566;19.056;2023-04-23T15:33:36;21.00;37.41
65824;SHT31;52585;47.566;19.056;2023-04-23T15:36:01;20.99;37.74
65824;SHT31;52585;47.566;19.056;2023-04-23T15:38:28;20.98;37.52
65824;SHT31;52585;47.566;19.056;2023-04-23T15:40:56;20.97;37.17